createdAt,value
2018-11-29T00:00:58.064Z,984.72
2018-11-29T00:01:57.969Z,984.68
2018-11-29T00:02:57.897Z,984.68
2018-11-29T00:03:57.803Z,984.61
2018-11-29T00:04:58.730Z,984.62
2018-11-29T00:05:57.636Z,984.58
2018-11-29T00:06:57.554Z,984.53
2018-11-29T00:07:57.462Z,984.50
2018-11-29T00:08:57.388Z,984.47
2018-11-29T00:09:57.298Z,984.49
2018-11-29T00:10:57.219Z,984.44
2018-11-29T00:11:57.130Z,984.49
2018-11-29T00:12:57.054Z,984.40
2018-11-29T00:13:56.953Z,984.48
2018-11-29T00:14:56.885Z,984.44
2018-11-29T00:15:56.792Z,984.50
2018-11-29T00:16:56.714Z,984.54
2018-11-29T00:17:56.620Z,984.54
2018-11-29T00:18:56.550Z,984.63
2018-11-29T00:19:56.450Z,984.59
2018-11-29T00:20:56.368Z,984.64
2018-11-29T00:21:56.282Z,984.65
2018-11-29T00:22:56.210Z,984.64
2018-11-29T00:23:56.127Z,984.72
2018-11-29T00:24:56.045Z,984.70
2018-11-29T00:25:55.943Z,984.71
2018-11-29T00:26:55.880Z,984.70
2018-11-29T00:27:55.781Z,984.73
2018-11-29T00:28:55.698Z,984.73
2018-11-29T00:29:55.607Z,984.78
2018-11-29T00:30:55.539Z,984.82
2018-11-29T00:31:55.442Z,984.78
2018-11-29T00:32:55.365Z,984.88
2018-11-29T00:33:55.274Z,984.90
2018-11-29T00:34:55.193Z,984.90
2018-11-29T00:35:55.102Z,984.96
2018-11-29T00:36:55.034Z,984.99
2018-11-29T00:37:54.934Z,984.97
2018-11-29T00:38:54.851Z,985.02
2018-11-29T00:39:54.766Z,984.95
2018-11-29T00:40:54.688Z,984.94
2018-11-29T00:41:54.594Z,984.86
2018-11-29T00:42:54.517Z,984.87
2018-11-29T00:43:54.427Z,984.80
2018-11-29T00:44:54.347Z,984.84
2018-11-29T00:45:54.258Z,984.81
2018-11-29T00:46:54.183Z,984.77
2018-11-29T00:47:54.089Z,984.89
2018-11-29T00:48:54.018Z,984.80
2018-11-29T00:49:53.922Z,984.80
2018-11-29T00:50:53.844Z,984.82
2018-11-29T00:51:53.754Z,984.88
2018-11-29T00:52:53.674Z,984.84
2018-11-29T00:53:53.589Z,984.84
2018-11-29T00:54:53.510Z,984.82
2018-11-29T00:55:53.425Z,984.80
2018-11-29T00:56:53.344Z,984.77
2018-11-29T00:57:53.247Z,984.73
2018-11-29T00:58:53.169Z,984.77
2018-11-29T00:59:53.076Z,984.70
2018-11-29T01:00:52.999Z,984.67
2018-11-29T01:01:52.910Z,984.67
2018-11-29T01:02:52.837Z,984.72
2018-11-29T01:03:52.748Z,984.65
2018-11-29T01:04:52.667Z,984.60
2018-11-29T01:05:52.573Z,984.61
2018-11-29T01:06:52.498Z,984.63
2018-11-29T01:07:52.405Z,984.66
2018-11-29T01:08:52.327Z,984.55
2018-11-29T01:09:52.234Z,984.64
2018-11-29T01:10:52.164Z,984.64
2018-11-29T01:11:52.062Z,984.66
2018-11-29T01:12:51.986Z,984.67
2018-11-29T01:13:51.909Z,984.72
2018-11-29T01:14:51.819Z,984.70
2018-11-29T01:15:51.729Z,984.69
2018-11-29T01:16:51.652Z,984.68
2018-11-29T01:17:51.561Z,984.62
2018-11-29T01:18:51.481Z,984.57
2018-11-29T01:19:51.392Z,984.55
2018-11-29T01:20:51.312Z,984.53
2018-11-29T01:21:51.219Z,984.55
2018-11-29T01:22:51.154Z,984.49
2018-11-29T01:23:51.055Z,984.49
2018-11-29T01:24:50.978Z,984.47
2018-11-29T01:25:50.884Z,984.47
2018-11-29T01:26:50.808Z,984.49
2018-11-29T01:27:50.713Z,984.53
2018-11-29T01:28:50.639Z,984.52
2018-11-29T01:29:50.544Z,984.46
2018-11-29T01:30:50.472Z,984.45
2018-11-29T01:31:50.378Z,984.50
2018-11-29T01:32:50.299Z,984.59
2018-11-29T01:33:50.210Z,984.55
2018-11-29T01:34:50.131Z,984.50
2018-11-29T01:35:50.041Z,984.65
2018-11-29T01:36:49.964Z,984.54
2018-11-29T01:37:49.868Z,984.57
2018-11-29T01:38:49.793Z,984.54
2018-11-29T01:39:49.701Z,984.65
2018-11-29T01:40:49.626Z,984.60
2018-11-29T01:41:49.536Z,984.58
2018-11-29T01:42:49.456Z,984.68
2018-11-29T01:43:49.360Z,984.63
2018-11-29T01:44:49.289Z,984.63
2018-11-29T01:45:49.197Z,984.62
2018-11-29T01:46:49.158Z,984.70
2018-11-29T01:47:49.026Z,984.70
2018-11-29T01:48:48.951Z,984.68
2018-11-29T01:49:48.855Z,984.70
2018-11-29T01:50:48.778Z,984.68
2018-11-29T01:51:48.690Z,984.71
2018-11-29T01:52:48.599Z,984.68
2018-11-29T01:53:48.525Z,984.67
2018-11-29T01:54:48.437Z,984.68
2018-11-29T01:55:48.355Z,984.65
2018-11-29T01:56:48.263Z,984.62
2018-11-29T01:57:48.190Z,984.61
2018-11-29T01:58:48.097Z,984.57
2018-11-29T01:59:48.017Z,984.56
2018-11-29T02:00:47.944Z,984.52
2018-11-29T02:01:47.849Z,984.49
2018-11-29T02:02:47.758Z,984.51
2018-11-29T02:03:47.679Z,984.48
2018-11-29T02:04:47.588Z,984.45
2018-11-29T02:05:47.510Z,984.44
2018-11-29T02:06:47.421Z,984.45
2018-11-29T02:07:47.337Z,984.45
2018-11-29T02:08:47.250Z,984.43
2018-11-29T02:09:47.173Z,984.41
2018-11-29T02:10:47.080Z,984.47
2018-11-29T02:11:47.007Z,984.43
2018-11-29T02:12:46.912Z,984.46
2018-11-29T02:13:46.837Z,984.44
2018-11-29T02:14:46.746Z,984.45
2018-11-29T02:15:46.667Z,984.47
2018-11-29T02:16:46.575Z,984.38
2018-11-29T02:17:46.497Z,984.41
2018-11-29T02:18:46.407Z,984.38
2018-11-29T02:19:46.326Z,984.40
2018-11-29T02:20:46.239Z,984.40
2018-11-29T02:21:46.163Z,984.45
2018-11-29T02:22:46.068Z,984.41
2018-11-29T02:23:45.994Z,984.43
2018-11-29T02:24:45.906Z,984.45
2018-11-29T02:25:45.821Z,984.41
2018-11-29T02:26:45.729Z,984.42
2018-11-29T02:27:45.651Z,984.46
2018-11-29T02:28:45.557Z,984.40
2018-11-29T02:29:45.493Z,984.41
2018-11-29T02:30:45.389Z,984.37
2018-11-29T02:31:45.314Z,984.34
2018-11-29T02:32:45.225Z,984.34
2018-11-29T02:33:45.142Z,984.34
2018-11-29T02:34:45.051Z,984.31
2018-11-29T02:35:44.978Z,984.28
2018-11-29T02:36:44.884Z,984.25
2018-11-29T02:37:44.807Z,984.24
2018-11-29T02:38:44.716Z,984.21
2018-11-29T02:39:44.643Z,984.18
2018-11-29T02:40:44.548Z,984.18
2018-11-29T02:41:44.468Z,984.16
2018-11-29T02:42:44.388Z,984.14
2018-11-29T02:43:44.301Z,984.13
2018-11-29T02:44:44.234Z,984.08
2018-11-29T02:45:44.136Z,984.10
2018-11-29T02:46:44.041Z,984.04
2018-11-29T02:47:43.964Z,984.10
2018-11-29T02:48:43.880Z,984.11
2018-11-29T02:49:43.791Z,984.02
2018-11-29T02:50:43.706Z,984.09
2018-11-29T02:51:43.623Z,984.06
2018-11-29T02:52:43.539Z,983.99
2018-11-29T02:53:43.459Z,984.06
2018-11-29T02:54:43.365Z,984.11
2018-11-29T02:55:43.288Z,984.03
2018-11-29T02:56:43.201Z,984.05
2018-11-29T02:57:43.118Z,984.04
2018-11-29T02:58:43.028Z,984.05
2018-11-29T02:59:42.956Z,984.05
2018-11-29T03:00:42.866Z,984.00
2018-11-29T03:01:42.781Z,984.00
2018-11-29T03:02:42.699Z,984.07
2018-11-29T03:03:42.612Z,983.96
2018-11-29T03:04:42.520Z,983.98
2018-11-29T03:05:42.445Z,984.03
2018-11-29T03:06:42.352Z,983.99
2018-11-29T03:07:42.272Z,984.05
2018-11-29T03:08:42.181Z,983.97
2018-11-29T03:09:42.108Z,983.90
2018-11-29T03:10:42.012Z,983.93
2018-11-29T03:11:41.935Z,983.90
2018-11-29T03:12:41.849Z,983.83
2018-11-29T03:13:41.771Z,983.78
2018-11-29T03:14:41.677Z,983.79
2018-11-29T03:15:41.592Z,983.80
2018-11-29T03:16:41.510Z,983.77
2018-11-29T03:17:41.431Z,983.77
2018-11-29T03:18:41.341Z,983.73
2018-11-29T03:19:41.260Z,983.78
2018-11-29T03:20:41.166Z,983.81
2018-11-29T03:21:41.090Z,983.78
2018-11-29T03:22:40.999Z,983.81
2018-11-29T03:23:40.921Z,983.90
2018-11-29T03:24:40.835Z,983.86
2018-11-29T03:25:40.756Z,983.85
2018-11-29T03:26:40.661Z,983.88
2018-11-29T03:27:40.588Z,983.86
2018-11-29T03:28:40.491Z,983.91
2018-11-29T03:29:40.410Z,983.87
2018-11-29T03:30:40.322Z,983.86
2018-11-29T03:31:40.239Z,983.84
2018-11-29T03:32:40.150Z,983.83
2018-11-29T03:33:40.088Z,983.79
2018-11-29T03:34:39.980Z,983.78
2018-11-29T03:35:44.438Z,983.80
2018-11-29T03:36:39.829Z,983.75
2018-11-29T03:37:39.738Z,983.80
2018-11-29T03:38:39.645Z,983.81
2018-11-29T03:39:39.568Z,983.80
2018-11-29T03:40:39.486Z,983.79
2018-11-29T03:41:39.401Z,983.76
2018-11-29T03:42:39.307Z,983.72
2018-11-29T03:43:39.232Z,983.72
2018-11-29T03:44:39.134Z,983.75
2018-11-29T03:45:39.063Z,983.80
2018-11-29T03:46:38.968Z,983.75
2018-11-29T03:47:38.894Z,983.74
2018-11-29T03:48:38.800Z,983.74
2018-11-29T03:49:38.721Z,983.70
2018-11-29T03:50:38.627Z,983.66
2018-11-29T03:51:38.556Z,983.69
2018-11-29T03:52:38.462Z,983.62
2018-11-29T03:53:38.384Z,983.62
2018-11-29T03:54:38.299Z,983.61
2018-11-29T03:55:38.214Z,983.62
2018-11-29T03:56:38.124Z,983.66
2018-11-29T03:57:38.044Z,983.64
2018-11-29T03:58:37.955Z,983.65
2018-11-29T03:59:37.883Z,983.67
2018-11-29T04:00:37.783Z,983.74
2018-11-29T04:01:37.714Z,983.72
2018-11-29T04:02:37.616Z,983.75
2018-11-29T04:03:37.541Z,983.70
2018-11-29T04:04:37.444Z,983.74
2018-11-29T04:05:37.367Z,983.72
2018-11-29T04:06:37.278Z,983.72
2018-11-29T04:07:37.206Z,983.75
2018-11-29T04:08:37.107Z,983.74
2018-11-29T04:09:37.034Z,983.74
2018-11-29T04:10:36.939Z,983.75
2018-11-29T04:11:36.860Z,983.73
2018-11-29T04:12:36.770Z,983.72
2018-11-29T04:13:36.694Z,983.74
2018-11-29T04:14:36.602Z,983.68
2018-11-29T04:15:36.525Z,983.68
2018-11-29T04:16:36.431Z,983.71
2018-11-29T04:17:40.579Z,983.68
2018-11-29T04:18:36.264Z,983.67
2018-11-29T04:19:36.187Z,983.70
2018-11-29T04:20:36.095Z,983.71
2018-11-29T04:21:36.024Z,983.69
2018-11-29T04:22:35.925Z,983.70
2018-11-29T04:23:35.847Z,983.68
2018-11-29T04:24:35.756Z,983.66
2018-11-29T04:25:35.692Z,983.59
2018-11-29T04:26:35.592Z,983.56
2018-11-29T04:27:35.512Z,983.54
2018-11-29T04:28:35.434Z,983.55
2018-11-29T04:29:35.343Z,983.47
2018-11-29T04:30:35.248Z,983.45
2018-11-29T04:31:35.169Z,983.41
2018-11-29T04:32:35.079Z,983.31
2018-11-29T04:33:35.004Z,983.34
2018-11-29T04:34:34.914Z,983.25
2018-11-29T04:35:34.838Z,983.24
2018-11-29T04:36:34.743Z,983.20
2018-11-29T04:37:34.665Z,983.26
2018-11-29T04:38:34.572Z,983.20
2018-11-29T04:39:34.493Z,983.25
2018-11-29T04:40:34.405Z,983.33
2018-11-29T04:41:34.322Z,983.38
2018-11-29T04:42:34.238Z,983.33
2018-11-29T04:43:34.158Z,983.45
2018-11-29T04:44:34.067Z,983.44
2018-11-29T04:45:33.990Z,983.48
2018-11-29T04:46:33.901Z,983.46
2018-11-29T04:47:33.825Z,983.46
2018-11-29T04:48:33.728Z,983.45
2018-11-29T04:49:33.651Z,983.38
2018-11-29T04:50:33.560Z,983.40
2018-11-29T04:51:33.486Z,983.39
2018-11-29T04:52:33.390Z,983.40
2018-11-29T04:53:33.315Z,983.42
2018-11-29T04:54:33.221Z,983.45
2018-11-29T04:55:33.144Z,983.50
2018-11-29T04:56:33.067Z,983.46
2018-11-29T04:57:32.976Z,983.47
2018-11-29T04:58:32.886Z,983.48
2018-11-29T04:59:32.808Z,983.50
2018-11-29T05:00:32.718Z,983.51
2018-11-29T05:01:32.639Z,983.43
2018-11-29T05:02:32.547Z,983.47
2018-11-29T05:03:32.472Z,983.49
2018-11-29T05:04:32.375Z,983.46
2018-11-29T05:05:32.301Z,983.47
2018-11-29T05:06:32.206Z,983.51
2018-11-29T05:07:32.142Z,983.49
2018-11-29T05:08:32.032Z,983.51
2018-11-29T05:09:31.960Z,983.56
2018-11-29T05:10:31.872Z,983.50
2018-11-29T05:11:31.789Z,983.54
2018-11-29T05:12:31.697Z,983.52
2018-11-29T05:13:31.622Z,983.42
2018-11-29T05:14:31.528Z,983.46
2018-11-29T05:15:31.455Z,983.43
2018-11-29T05:16:31.370Z,983.43
2018-11-29T05:17:31.292Z,983.45
2018-11-29T05:18:32.446Z,983.49
2018-11-29T05:19:31.123Z,983.47
2018-11-29T05:20:31.019Z,983.46
2018-11-29T05:21:31.035Z,983.55
2018-11-29T05:22:30.851Z,983.52
2018-11-29T05:23:30.840Z,983.53
2018-11-29T05:24:30.679Z,983.55
2018-11-29T05:25:30.606Z,983.54
2018-11-29T05:26:30.511Z,983.49
2018-11-29T05:27:30.434Z,983.53
2018-11-29T05:28:30.362Z,983.51
2018-11-29T05:29:30.369Z,983.50
2018-11-29T05:30:30.176Z,983.47
2018-11-29T05:31:30.177Z,983.43
2018-11-29T05:32:30.008Z,983.42
2018-11-29T05:33:29.990Z,983.33
2018-11-29T05:34:29.837Z,983.33
2018-11-29T05:35:29.795Z,983.30
2018-11-29T05:36:29.666Z,983.36
2018-11-29T05:37:29.607Z,983.37
2018-11-29T05:38:29.501Z,983.31
2018-11-29T05:39:29.518Z,983.33
2018-11-29T05:40:29.329Z,983.28
2018-11-29T05:41:29.323Z,983.31
2018-11-29T05:42:29.158Z,983.34
2018-11-29T05:43:29.141Z,983.34
2018-11-29T05:44:28.990Z,983.35
2018-11-29T05:45:28.943Z,983.44
2018-11-29T05:46:28.816Z,983.46
2018-11-29T05:47:28.851Z,983.52
2018-11-29T05:48:28.650Z,983.55
2018-11-29T05:49:28.659Z,983.48
2018-11-29T05:50:28.489Z,983.51
2018-11-29T05:51:28.470Z,983.48
2018-11-29T05:52:28.324Z,983.44
2018-11-29T05:53:28.278Z,983.50
2018-11-29T05:54:28.148Z,983.48
2018-11-29T05:55:28.101Z,983.48
2018-11-29T05:56:27.971Z,983.44
2018-11-29T05:57:27.994Z,983.48
2018-11-29T05:58:27.808Z,983.48
2018-11-29T06:00:03.746Z,983.48
2018-11-29T06:00:27.637Z,983.51
2018-11-29T06:01:27.552Z,983.49
2018-11-29T06:02:27.514Z,983.49
2018-11-29T06:03:27.382Z,983.48
2018-11-29T06:04:27.324Z,983.46
2018-11-29T06:05:27.216Z,983.52
2018-11-29T06:06:27.235Z,983.50
2018-11-29T06:07:27.043Z,983.55
2018-11-29T06:08:27.045Z,983.55
2018-11-29T06:09:26.873Z,983.50
2018-11-29T06:10:26.854Z,983.57
2018-11-29T06:11:26.713Z,983.56
2018-11-29T06:12:26.661Z,983.51
2018-11-29T06:13:26.532Z,983.54
2018-11-29T06:14:26.467Z,983.53
2018-11-29T06:15:26.366Z,983.49
2018-11-29T06:16:26.386Z,983.49
2018-11-29T06:17:26.199Z,983.45
2018-11-29T06:18:26.229Z,983.43
2018-11-29T06:19:26.029Z,983.44
2018-11-29T06:20:25.996Z,983.41
2018-11-29T06:21:25.861Z,983.41
2018-11-29T06:22:25.805Z,983.43
2018-11-29T06:23:25.695Z,983.50
2018-11-29T06:24:25.613Z,983.46
2018-11-29T06:25:25.528Z,983.47
2018-11-29T06:26:25.447Z,983.46
2018-11-29T06:27:25.350Z,983.49
2018-11-29T06:28:25.272Z,983.46
2018-11-29T06:29:25.181Z,983.47
2018-11-29T06:30:25.104Z,983.52
2018-11-29T06:31:25.010Z,983.59
2018-11-29T06:32:24.937Z,983.57
2018-11-29T06:33:24.840Z,983.58
2018-11-29T06:34:24.757Z,983.57
2018-11-29T06:35:24.776Z,983.51
2018-11-29T06:36:24.586Z,983.44
2018-11-29T06:37:24.586Z,983.48
2018-11-29T06:38:24.416Z,983.50
2018-11-29T06:39:24.393Z,983.49
2018-11-29T06:40:24.250Z,983.48
2018-11-29T06:41:24.201Z,983.49
2018-11-29T06:42:24.085Z,983.52
2018-11-29T06:43:24.112Z,983.59
2018-11-29T06:44:23.911Z,983.62
2018-11-29T06:45:23.924Z,983.61
2018-11-29T06:46:23.746Z,983.63
2018-11-29T06:47:23.730Z,983.55
2018-11-29T06:48:23.579Z,983.58
2018-11-29T06:49:23.541Z,983.57
2018-11-29T06:50:23.401Z,983.54
2018-11-29T06:51:23.348Z,983.57
2018-11-29T06:52:23.233Z,983.60
2018-11-29T06:53:23.261Z,983.61
2018-11-29T06:54:23.066Z,983.61
2018-11-29T06:55:23.070Z,983.63
2018-11-29T06:56:22.896Z,983.56
2018-11-29T06:57:22.878Z,983.56
2018-11-29T06:58:22.727Z,983.52
2018-11-29T06:59:22.689Z,983.56
2018-11-29T07:00:22.551Z,983.49
2018-11-29T07:01:22.494Z,983.50
2018-11-29T07:02:22.390Z,983.48
2018-11-29T07:03:22.299Z,983.52
2018-11-29T07:04:22.314Z,983.47
2018-11-29T07:05:22.133Z,983.47
2018-11-29T07:06:22.053Z,983.43
2018-11-29T07:07:21.968Z,983.44
2018-11-29T07:08:21.929Z,983.46
2018-11-29T07:09:21.795Z,983.45
2018-11-29T07:10:21.741Z,983.44
2018-11-29T07:11:21.627Z,983.45
2018-11-29T07:12:23.595Z,983.42
2018-11-29T07:13:21.455Z,983.46
2018-11-29T07:14:21.460Z,983.45
2018-11-29T07:15:21.287Z,983.45
2018-11-29T07:16:21.267Z,983.49
2018-11-29T07:17:21.120Z,983.49
2018-11-29T07:18:21.083Z,983.44
2018-11-29T07:19:20.953Z,983.50
2018-11-29T07:20:20.886Z,983.54
2018-11-29T07:21:20.779Z,983.49
2018-11-29T07:22:20.795Z,983.49
2018-11-29T07:23:20.610Z,983.55
2018-11-29T07:24:20.611Z,983.51
2018-11-29T07:25:20.443Z,983.44
2018-11-29T07:26:21.437Z,983.46
2018-11-29T07:27:20.270Z,983.44
2018-11-29T07:28:20.223Z,983.43
2018-11-29T07:29:20.104Z,983.41
2018-11-29T07:30:20.142Z,983.46
2018-11-29T07:31:19.934Z,983.45
2018-11-29T07:32:19.950Z,983.35
2018-11-29T07:33:19.762Z,983.37
2018-11-29T07:34:19.679Z,983.41
2018-11-29T07:35:19.660Z,983.41
2018-11-29T07:36:19.510Z,983.40
2018-11-29T07:37:19.467Z,983.39
2018-11-29T07:38:19.339Z,983.34
2018-11-29T07:39:19.279Z,983.26
2018-11-29T07:40:19.169Z,983.31
2018-11-29T07:41:19.187Z,983.37
2018-11-29T07:42:19.002Z,983.38
2018-11-29T07:43:18.997Z,983.36
2018-11-29T07:44:18.834Z,983.41
2018-11-29T07:45:18.808Z,983.36
2018-11-29T07:46:18.662Z,983.38
2018-11-29T07:47:18.614Z,983.34
2018-11-29T07:48:18.491Z,983.38
2018-11-29T07:49:18.525Z,983.39
2018-11-29T07:50:18.322Z,983.37
2018-11-29T07:51:18.334Z,983.29
2018-11-29T07:52:18.154Z,983.36
2018-11-29T07:53:18.144Z,983.26
2018-11-29T07:54:17.988Z,983.24
2018-11-29T07:55:17.954Z,983.19
2018-11-29T07:56:17.815Z,983.19
2018-11-29T07:57:17.761Z,983.15
2018-11-29T07:58:17.643Z,983.10
2018-11-29T07:59:17.673Z,983.13
2018-11-29T08:00:17.479Z,983.05
2018-11-29T08:01:17.487Z,983.03
2018-11-29T08:02:17.308Z,983.05
2018-11-29T08:03:17.290Z,983.03
2018-11-29T08:04:17.134Z,982.97
2018-11-29T08:05:18.198Z,983.00
2018-11-29T08:06:16.969Z,983.03
2018-11-29T08:07:16.909Z,983.00
2018-11-29T08:08:16.804Z,983.05
2018-11-29T08:09:16.822Z,983.00
2018-11-29T08:10:16.639Z,982.98
2018-11-29T08:11:16.547Z,982.94
2018-11-29T08:12:16.530Z,982.91
2018-11-29T08:13:16.379Z,982.88
2018-11-29T08:14:16.343Z,982.86
2018-11-29T08:15:16.214Z,982.83
2018-11-29T08:16:16.157Z,982.86
2018-11-29T08:17:16.040Z,982.84
2018-11-29T08:18:16.063Z,982.86
2018-11-29T08:19:15.872Z,982.88
2018-11-29T08:20:15.874Z,982.82
2018-11-29T08:21:15.704Z,982.88
2018-11-29T08:22:15.683Z,982.78
2018-11-29T08:23:15.539Z,982.83
2018-11-29T08:24:15.489Z,982.83
2018-11-29T08:25:15.368Z,982.80
2018-11-29T08:26:15.403Z,982.80
2018-11-29T08:27:15.195Z,982.83
2018-11-29T08:28:15.212Z,982.83
2018-11-29T08:29:15.033Z,982.83
2018-11-29T08:30:14.948Z,982.74
2018-11-29T08:31:14.925Z,982.77
2018-11-29T08:32:14.782Z,982.74
2018-11-29T08:33:14.734Z,982.71
2018-11-29T08:34:14.612Z,982.74
2018-11-29T08:35:14.653Z,982.81
2018-11-29T08:36:14.444Z,982.83
2018-11-29T08:37:14.359Z,982.78
2018-11-29T08:38:14.364Z,982.84
2018-11-29T08:39:14.193Z,982.89
2018-11-29T08:40:14.167Z,982.83
2018-11-29T08:41:14.026Z,982.81
2018-11-29T08:42:13.981Z,982.85
2018-11-29T08:43:13.857Z,982.88
2018-11-29T08:44:13.770Z,982.84
2018-11-29T08:45:13.790Z,982.78
2018-11-29T08:46:13.616Z,982.83
2018-11-29T08:47:13.518Z,982.80
2018-11-29T08:48:13.509Z,982.81
2018-11-29T08:49:13.359Z,982.80
2018-11-29T08:50:13.322Z,982.82
2018-11-29T08:51:13.187Z,982.81
2018-11-29T08:52:13.124Z,982.79
2018-11-29T08:53:13.030Z,982.80
2018-11-29T08:54:13.035Z,982.75
2018-11-29T08:55:12.854Z,982.78
2018-11-29T08:56:12.846Z,982.75
2018-11-29T08:57:12.688Z,982.76
2018-11-29T08:58:12.653Z,982.77
2018-11-29T08:59:12.514Z,982.78
2018-11-29T09:00:12.463Z,982.79
2018-11-29T09:01:12.354Z,982.75
2018-11-29T09:02:12.377Z,982.73
2018-11-29T09:03:12.181Z,982.70
2018-11-29T09:04:12.187Z,982.75
2018-11-29T09:05:12.016Z,982.67
2018-11-29T09:06:11.990Z,982.68
2018-11-29T09:07:11.848Z,982.71
2018-11-29T09:08:11.764Z,982.74
2018-11-29T09:09:11.706Z,982.64
2018-11-29T09:10:11.600Z,982.65
2018-11-29T09:11:11.611Z,982.58
2018-11-29T09:12:11.432Z,982.60
2018-11-29T09:13:11.424Z,982.58
2018-11-29T09:14:11.264Z,982.54
2018-11-29T09:15:11.233Z,982.54
2018-11-29T09:16:11.099Z,982.56
2018-11-29T09:17:11.044Z,982.57
2018-11-29T09:18:10.932Z,982.56
2018-11-29T09:19:10.956Z,982.54
2018-11-29T09:20:10.762Z,982.51
2018-11-29T09:21:10.762Z,982.49
2018-11-29T09:22:10.601Z,982.46
2018-11-29T09:23:10.573Z,982.43
2018-11-29T09:24:10.433Z,982.42
2018-11-29T09:25:10.381Z,982.41
2018-11-29T09:26:10.268Z,982.40
2018-11-29T09:27:10.288Z,982.38
2018-11-29T09:28:10.099Z,982.37
2018-11-29T09:29:10.101Z,982.36
2018-11-29T09:30:09.934Z,982.36
2018-11-29T09:31:09.909Z,982.32
2018-11-29T09:32:09.765Z,982.34
2018-11-29T09:33:09.715Z,982.33
2018-11-29T09:34:09.604Z,982.39
2018-11-29T09:35:09.630Z,982.37
2018-11-29T09:36:09.444Z,982.45
2018-11-29T09:37:09.350Z,982.36
2018-11-29T09:38:09.338Z,982.38
2018-11-29T09:39:09.188Z,982.38
2018-11-29T09:40:09.151Z,982.40
2018-11-29T09:41:09.024Z,982.39
2018-11-29T09:42:08.980Z,982.39
2018-11-29T09:43:08.864Z,982.43
2018-11-29T09:44:08.873Z,982.41
2018-11-29T09:45:08.692Z,982.40
2018-11-29T09:46:08.684Z,982.42
2018-11-29T09:47:08.525Z,982.32
2018-11-29T09:48:08.492Z,982.23
2018-11-29T09:49:08.363Z,982.21
2018-11-29T09:50:08.301Z,982.26
2018-11-29T09:51:08.195Z,982.20
2018-11-29T09:52:08.110Z,982.22
2018-11-29T09:53:08.093Z,982.27
2018-11-29T09:54:08.025Z,982.28
2018-11-29T09:55:07.864Z,982.32
2018-11-29T09:56:07.830Z,982.34
2018-11-29T09:57:07.700Z,982.35
2018-11-29T09:58:07.640Z,982.40
2018-11-29T09:59:07.534Z,982.34
2018-11-29T10:00:07.551Z,982.38
2018-11-29T10:01:07.377Z,982.34
2018-11-29T10:02:07.360Z,982.33
2018-11-29T10:03:07.204Z,982.38
2018-11-29T10:04:07.169Z,982.33
2018-11-29T10:05:07.039Z,982.40
2018-11-29T10:06:06.978Z,982.28
2018-11-29T10:07:06.878Z,982.30
2018-11-29T10:08:11.909Z,982.29
2018-11-29T10:09:06.710Z,982.23
2018-11-29T10:10:06.698Z,982.28
2018-11-29T10:11:06.545Z,982.29
2018-11-29T10:12:06.505Z,982.27
2018-11-29T10:13:06.376Z,982.28
2018-11-29T10:14:06.418Z,982.33
2018-11-29T10:15:06.214Z,982.29
2018-11-29T10:16:06.234Z,982.27
2018-11-29T10:17:06.047Z,982.20
2018-11-29T10:18:06.040Z,982.21
2018-11-29T10:19:05.887Z,982.17
2018-11-29T10:20:05.848Z,982.12
2018-11-29T10:21:05.718Z,982.07
2018-11-29T10:22:05.758Z,982.10
2018-11-29T10:23:05.550Z,982.06
2018-11-29T10:24:05.565Z,982.06
2018-11-29T10:25:05.390Z,982.07
2018-11-29T10:26:05.306Z,982.05
2018-11-29T10:27:05.279Z,982.07
2018-11-29T10:28:05.141Z,982.06
2018-11-29T10:29:05.091Z,982.01
2018-11-29T10:30:04.978Z,982.05
2018-11-29T10:31:05.001Z,982.04
2018-11-29T10:32:04.814Z,982.04
2018-11-29T10:33:04.808Z,981.99
2018-11-29T10:34:04.658Z,981.94
2018-11-29T10:35:04.613Z,981.99
2018-11-29T10:36:04.485Z,981.87
2018-11-29T10:37:04.436Z,981.93
2018-11-29T10:38:04.324Z,982.08
2018-11-29T10:39:04.339Z,981.94
2018-11-29T10:40:04.153Z,981.96
2018-11-29T10:41:04.073Z,981.95
2018-11-29T10:42:04.052Z,981.98
2018-11-29T10:43:03.908Z,981.95
2018-11-29T10:44:03.861Z,982.01
2018-11-29T10:45:03.750Z,981.96
2018-11-29T10:46:03.658Z,981.92
2018-11-29T10:47:03.676Z,981.85
2018-11-29T10:48:03.493Z,981.87
2018-11-29T10:49:03.484Z,981.85
2018-11-29T10:50:03.337Z,981.79
2018-11-29T10:51:03.297Z,981.84
2018-11-29T10:52:03.166Z,981.77
2018-11-29T10:53:03.203Z,981.72
2018-11-29T10:54:03.005Z,981.76
2018-11-29T10:55:02.923Z,981.75
2018-11-29T10:56:02.919Z,981.68
2018-11-29T10:57:02.758Z,981.71
2018-11-29T10:58:02.728Z,981.70
2018-11-29T10:59:02.591Z,981.68
2018-11-29T11:00:02.545Z,981.74
2018-11-29T11:01:02.434Z,981.69
2018-11-29T11:02:02.450Z,981.61
2018-11-29T11:03:02.268Z,981.64
2018-11-29T11:04:02.261Z,981.64
2018-11-29T11:05:02.103Z,981.67
2018-11-29T11:06:02.020Z,981.56
2018-11-29T11:07:01.973Z,981.55
2018-11-29T11:08:07.812Z,981.52
2018-11-29T11:09:02.803Z,981.46
2018-11-29T11:10:01.693Z,981.44
2018-11-29T11:11:01.693Z,981.40
2018-11-29T11:12:01.528Z,981.35
2018-11-29T11:13:01.503Z,981.35
2018-11-29T11:14:01.367Z,981.33
2018-11-29T11:15:01.315Z,981.38
2018-11-29T11:16:01.202Z,981.30
2018-11-29T11:17:01.226Z,981.32
2018-11-29T11:18:01.038Z,981.32
2018-11-29T11:19:01.034Z,981.28
2018-11-29T11:20:00.870Z,981.24
2018-11-29T11:21:00.797Z,981.26
2018-11-29T11:22:00.710Z,981.19
2018-11-29T11:23:00.753Z,981.16
2018-11-29T11:24:00.551Z,981.13
2018-11-29T11:25:00.476Z,981.14
2018-11-29T11:26:00.500Z,981.20
2018-11-29T11:27:00.298Z,981.16
2018-11-29T11:28:00.273Z,981.15
2018-11-29T11:29:00.136Z,981.15
2018-11-29T11:30:00.086Z,981.14
2018-11-29T11:30:59.971Z,981.08
2018-11-29T11:32:00.001Z,981.14
2018-11-29T11:32:59.815Z,981.07
2018-11-29T11:34:00.828Z,981.05
2018-11-29T11:34:59.653Z,981.07
2018-11-29T11:35:59.612Z,981.06
2018-11-29T11:36:59.485Z,981.08
2018-11-29T11:37:59.407Z,981.04
2018-11-29T11:38:59.427Z,981.04
2018-11-29T11:39:59.280Z,981.08
2018-11-29T11:40:59.238Z,981.06
2018-11-29T11:41:59.080Z,981.05
2018-11-29T11:42:59.039Z,981.10
2018-11-29T11:43:58.912Z,981.11
2018-11-29T11:44:58.956Z,981.11
2018-11-29T11:45:58.755Z,981.10
2018-11-29T11:46:58.795Z,981.07
2018-11-29T11:48:03.172Z,981.07
2018-11-29T11:48:58.578Z,981.05
2018-11-29T11:49:58.433Z,981.04
2018-11-29T11:50:58.388Z,981.00
2018-11-29T11:51:58.266Z,981.00
2018-11-29T11:52:58.188Z,981.02
2018-11-29T11:53:58.201Z,980.93
2018-11-29T11:54:58.020Z,980.98
2018-11-29T11:55:58.009Z,980.94
2018-11-29T11:56:57.865Z,980.96
2018-11-29T11:57:57.819Z,980.92
2018-11-29T11:58:57.694Z,980.95
2018-11-29T11:59:57.734Z,980.94
2018-11-29T12:00:57.533Z,980.97
2018-11-29T12:01:57.535Z,980.93
2018-11-29T12:02:57.371Z,980.91
2018-11-29T12:03:57.350Z,980.93
2018-11-29T12:04:57.208Z,980.96
2018-11-29T12:05:57.157Z,980.88
2018-11-29T12:06:57.048Z,980.83
2018-11-29T12:07:57.068Z,980.82
2018-11-29T12:08:56.887Z,980.80
2018-11-29T12:09:56.879Z,980.75
2018-11-29T12:10:56.724Z,980.80
2018-11-29T12:11:56.688Z,980.74
2018-11-29T12:12:56.564Z,980.76
2018-11-29T12:13:56.605Z,980.74
2018-11-29T12:14:56.397Z,980.74
2018-11-29T12:15:56.409Z,980.74
2018-11-29T12:16:56.241Z,980.68
2018-11-29T12:17:56.214Z,980.72
2018-11-29T12:19:02.115Z,980.71
2018-11-29T12:19:56.022Z,980.68
2018-11-29T12:20:55.908Z,980.70
2018-11-29T12:21:55.829Z,980.66
2018-11-29T12:22:55.843Z,980.64
2018-11-29T12:23:55.667Z,980.62
2018-11-29T12:24:55.597Z,980.58
2018-11-29T12:25:55.557Z,980.54
2018-11-29T12:26:55.426Z,980.54
2018-11-29T12:27:55.486Z,980.52